CST,Max TemperatureF,Mean TemperatureF,Min TemperatureF,Max Dew PointF,MeanDew PointF,Min DewpointF,Max Humidity, Mean Humidity, Min Humidity, Max Sea Level PressureIn, Mean Sea Level PressureIn, Min Sea Level PressureIn, Max VisibilityMiles, Mean VisibilityMiles, Min VisibilityMiles, Max Wind SpeedMPH, Mean Wind SpeedMPH, Max Gust SpeedMPH,PrecipitationIn, CloudCover, Events, WindDirDegrees
2013-1-1,26,13,-1,20,10,-1,92,83,73,30.35,30.19,29.99,,,,21,9,23,0.00,,,206
2013-1-2,30,18,6,25,16,2,88,81,73,30.34,30.07,29.94,,,,24,15,29,0.02,,,330
2013-1-3,29,17,5,17,11,1,88,78,68,30.39,30.27,30.02,,,,37,15,45,0.00,,,295
2013-1-4,33,19,5,23,14,3,96,75,53,30.17,30.12,29.97,,,,35,6,43,0.00,,,325
2013-1-5,23,14,4,15,9,1,92,83,73,30.23,30.09,30.01,,,,28,11,31,0.01,,,338
2013-1-6,33,19,5,22,12,3,100,82,63,30.29,30.14,29.81,,,,35,10,45,0.00,,,228
2013-1-7,36,27,17,24,21,15,92,76,59,29.99,29.91,29.76,,,,23,12,32,0.00,,,276
2013-1-8,38,26,13,28,22,12,92,81,70,29.96,29.84,29.73,,,,24,12,32,0.00,,,220
2013-1-9,40,32,24,29,22,19,88,74,59,30.28,30.16,29.94,,,,33,15,44,0.00,,,244
2013-1-10,43,38,33,33,29,25,100,77,53,30.05,29.85,29.57,,,,44,24,61,0.03,,,199
2013-1-11,34,24,13,34,26,9,100,92,84,29.57,29.49,29.42,,,,39,10,92,0.02,,,136
2013-1-12,13,7,1,8,0,-5,87,82,76,30.28,30.03,29.63,,,,30,20,37,0.07,,,344
2013-1-13,15,7,-2,6,-1,-7,86,77,67,30.37,30.29,30.24,,,,18,10,22,0.00,,,329
2013-1-14,13,4,-5,5,-1,-8,87,77,66,30.48,30.40,30.31,,,,14,6,16,0.00,,,248
2013-1-15,30,18,6,25,8,2,83,69,54,30.30,30.06,29.70,,,,26,13,36,0.00,,,228
2013-1-16,37,18,-1,33,14,-8,100,84,67,30.41,30.01,29.67,,,,28,14,35,0.04,,,350
2013-1-17,24,12,-1,16,7,-9,80,71,62,30.50,30.42,30.19,,,,21,10,24,0.00,,,153
2013-1-18,40,28,16,31,24,11,92,78,64,30.13,29.86,29.73,,,,26,10,31,0.00,,,248
2013-1-19,38,19,0,30,14,-7,84,73,61,30.45,30.05,29.71,,,,43,23,53,0.02,,,335
2013-1-20,9,0,-9,0,-7,-18,79,71,63,30.53,30.50,30.46,,,,32,17,39,0.00,,,335
2013-1-21,4,-3,-11,-9,-14,-19,82,69,56,30.53,30.48,30.43,,,,25,15,30,0.00,,,329
2013-1-22,12,1,-10,6,-6,-14,80,66,52,30.48,30.41,30.28,,,,10,3,12,0.00,,,262
2013-1-23,13,1,-11,8,-5,-20,88,76,63,30.79,30.50,30.24,,,,26,16,31,0.01,,,2
2013-1-24,12,1,-11,3,-8,-21,72,67,61,30.79,30.48,30.14,,,,29,14,33,0.00,,,172
2013-1-25,20,9,-3,14,-1,-7,79,67,55,30.43,30.26,30.05,,,,36,16,46,0.01,,,340
2013-1-26,18,8,-3,10,1,-6,88,75,61,30.42,30.24,30.08,,,,21,10,25,0.00,,,166
2013-1-27,29,19,8,27,17,5,100,85,69,30.07,29.91,29.83,,,,12,4,13,0.00,,,164
2013-1-28,31,28,24,29,26,22,100,93,85,29.89,29.83,29.75,,,,13,6,15,0.48,,,301
2013-1-29,26,21,16,24,20,13,100,92,84,29.98,29.83,29.70,,,,25,15,29,0.14,,,355
2013-1-30,16,4,-8,13,-1,-14,88,80,71,30.06,29.98,29.96,,,,28,20,32,0.01,,,343
2013-1-31,-7,-11,-16,-15,-19,-23,77,71,65,30.50,30.36,30.07,,,,32,18,38,0.00,,,327